Ship Status Report: callsign SW8391

sailwx.info

Track history (hours):
 
Tides and Currents Weather Stations Pressure Air Temp Water Temp Dewpoint Dewpoint Depression Visibility Wind Speed Wind Dir Waves Ship Positions

Callsign SW8391 (name unknown)

Last reported at 2017-Aug-20 08:18 UTC. Time now 2017-Sep-22 22:28 UTC.
Position N 37°55' E 023°42'.
Warning: this ship's position is 33 days out of date.

AWS

Date/timePositionNaut miles runAvg speedWind from/ knotsBaromVisibWave heightAir tempDewpointWater temp
2017-Aug-20 08:18N 37°55' E 023°42'0 0.0
2017-Aug-20 08:00N 37°55' E 023°42'0 0.0
2017-Aug-20 07:30N 37°55' E 023°42'0 0.0
2017-Aug-20 06:57N 37°55' E 023°42'0 0.0
2017-Aug-20 06:30N 37°55' E 023°42'0 0.0
2017-Aug-20 06:00N 37°55' E 023°42'0 0.0
2017-Aug-20 05:30N 37°55' E 023°42'0 0.0
2017-Aug-20 05:00N 37°55' E 023°42'0 0.0
2017-Aug-20 04:30N 37°55' E 023°42'0 0.0
2017-Aug-20 04:00N 37°55' E 023°42'0 0.0
2017-Aug-20 03:30N 37°55' E 023°42'0 0.0
2017-Aug-20 03:00N 37°55' E 023°42'0 0.0
2017-Aug-20 02:27N 37°55' E 023°42'0 0.0
2017-Aug-20 01:57N 37°55' E 023°42'0 0.0
2017-Aug-20 01:30N 37°55' E 023°42'0 0.0
2017-Aug-20 01:00N 37°55' E 023°42'0 0.0
2017-Aug-20 00:30N 37°55' E 023°42'0 0.0
2017-Aug-20 00:00N 37°55' E 023°42'0 0.0
2017-Aug-19 23:30N 37°55' E 023°42'0 0.0
2017-Aug-19 23:00N 37°55' E 023°42'0 0.0
2017-Aug-19 22:27N 37°55' E 023°42'0 0.0
2017-Aug-19 22:00N 37°55' E 023°42'0 0.0
2017-Aug-19 21:30N 37°55' E 023°42'0 0.0
2017-Aug-19 21:00N 37°55' E 023°42'0 0.0
2017-Aug-19 20:30N 37°55' E 023°42'0 0.0
2017-Aug-19 20:00N 37°55' E 023°42'0 0.0
2017-Aug-19 19:30N 37°55' E 023°42'0 0.0
2017-Aug-19 19:00N 37°55' E 023°42'0 0.0
2017-Aug-19 18:30N 37°55' E 023°42'0 0.0
2017-Aug-19 18:00N 37°55' E 023°42'0 0.0
2017-Aug-19 17:30N 37°55' E 023°42'0 0.0
2017-Aug-19 17:00N 37°55' E 023°42'1 1.3
2017-Aug-19 16:30N 37°54' E 023°42'4 7.3
2017-Aug-19 16:00N 37°51' E 023°43'4 7.4
2017-Aug-19 15:30N 37°48' E 023°46'53 5.2
2017-Aug-19 05:16N 37°22' E 024°44'2 7.6
2017-Aug-19 05:00N 37°22' E 024°47'4 7.9
2017-Aug-19 04:30N 37°23' E 024°52'  
2017-Aug-16 07:17N 37°24' E 024°53'2 6.4
2017-Aug-16 07:00N 37°22' E 024°52'3 6.0
2017-Aug-16 06:30N 37°19' E 024°55'4 7.4
2017-Aug-16 06:00N 37°17' E 024°59'4 7.3
2017-Aug-16 05:30N 37°15' E 025°02'10 6.9
2017-Aug-16 04:04N 37°10' E 025°13'1 7.6
2017-Aug-16 03:58N 37°10' E 025°14'1 1.6
2017-Aug-16 03:20N 37°09' E 025°14'0 0.0
2017-Aug-16 02:59N 37°09' E 025°14'0 0.0
2017-Aug-16 02:29N 37°09' E 025°14'0 0.0
2017-Aug-16 01:56N 37°09' E 025°14'0 0.0
2017-Aug-16 01:29N 37°09' E 025°14'0 0.0
2017-Aug-16 00:59N 37°09' E 025°14'0 0.0
2017-Aug-16 00:29N 37°09' E 025°14'0 0.0
2017-Aug-15 23:59N 37°09' E 025°14'0 0.0
2017-Aug-15 23:29N 37°09' E 025°14'0 0.0
2017-Aug-15 22:59N 37°09' E 025°14'0 0.0
2017-Aug-15 22:26N 37°09' E 025°14'0 0.0
2017-Aug-15 21:56N 37°09' E 025°14'0 0.0
2017-Aug-15 21:29N 37°09' E 025°14'0 0.0
2017-Aug-15 20:56N 37°09' E 025°14'0 0.0
2017-Aug-15 20:29N 37°09' E 025°14'0 0.0
2017-Aug-15 19:59N 37°09' E 025°14'0 0.0
2017-Aug-15 19:26N 37°09' E 025°14'0 0.0
2017-Aug-15 18:56N 37°09' E 025°14'0 0.0
2017-Aug-15 18:26N 37°09' E 025°14'0 0.0
2017-Aug-15 17:59N 37°09' E 025°14'0 0.0
2017-Aug-15 17:26N 37°09' E 025°14'0 0.0
2017-Aug-15 16:59N 37°09' E 025°14'0 0.0
2017-Aug-15 16:26N 37°09' E 025°14'0 0.0
2017-Aug-15 15:50N 37°09' E 025°14'0 0.0
2017-Aug-15 15:29N 37°09' E 025°14'0 0.0
2017-Aug-15 14:56N 37°09' E 025°14'0 0.0
2017-Aug-15 14:23N 37°09' E 025°14'0 0.0
2017-Aug-15 13:59N 37°09' E 025°14'0 0.0
2017-Aug-15 13:29N 37°09' E 025°14'0 0.0
2017-Aug-15 12:59N 37°09' E 025°14'0 0.0
2017-Aug-15 12:29N 37°09' E 025°14'0 0.0
2017-Aug-15 11:59N 37°09' E 025°14'0 0.0
2017-Aug-15 11:29N 37°09' E 025°14'0 0.0
2017-Aug-15 10:59N 37°09' E 025°14'0 0.0
2017-Aug-15 10:23N 37°09' E 025°14'0 0.0
2017-Aug-15 09:59N 37°09' E 025°14'0 0.0
2017-Aug-15 09:29N 37°09' E 025°14'0 0.0
2017-Aug-15 08:56N 37°09' E 025°14'0 0.0
2017-Aug-15 08:29N 37°09' E 025°14'0 0.0
2017-Aug-15 07:56N 37°09' E 025°14'0 0.0
2017-Aug-15 07:23N 37°09' E 025°14'0 0.0
2017-Aug-15 06:59N 37°09' E 025°14'0 0.0
2017-Aug-15 06:26N 37°09' E 025°14'0 0.0
2017-Aug-15 05:59N 37°09' E 025°14'0 0.0
2017-Aug-15 05:29N 37°09' E 025°14'0 0.0
2017-Aug-15 04:59N 37°09' E 025°14'0 0.0
2017-Aug-15 04:29N 37°09' E 025°14'0 0.0
2017-Aug-15 03:59N 37°09' E 025°14'0 0.0
2017-Aug-15 03:29N 37°09' E 025°14'0 0.0
2017-Aug-15 02:59N 37°09' E 025°14'0 0.0
2017-Aug-15 02:29N 37°09' E 025°14'0 0.0
2017-Aug-15 01:53N 37°09' E 025°14'0 0.0
2017-Aug-15 01:29N 37°09' E 025°14'0 0.0
2017-Aug-15 00:59N 37°09' E 025°14'0 0.0
2017-Aug-15 00:29N 37°09' E 025°14'0 0.0
2017-Aug-14 23:56N 37°09' E 025°14'0 0.0
2017-Aug-14 23:26N 37°09' E 025°14'0 0.0
2017-Aug-14 22:53N 37°09' E 025°14'0 0.0
2017-Aug-14 22:23N 37°09' E 025°14'0 0.0
2017-Aug-14 21:53N 37°09' E 025°14'0 0.0
2017-Aug-14 21:26N 37°09' E 025°14'0 0.0
2017-Aug-14 20:56N 37°09' E 025°14'0 0.0
2017-Aug-14 20:29N 37°09' E 025°14'0 0.0
2017-Aug-14 19:59N 37°09' E 025°14'0 0.0
2017-Aug-14 19:29N 37°09' E 025°14'0 0.0
2017-Aug-14 18:59N 37°09' E 025°14'0 0.0
2017-Aug-14 18:29N 37°09' E 025°14'0 0.0
2017-Aug-14 17:53N 37°09' E 025°14'0 0.0
2017-Aug-14 17:29N 37°09' E 025°14'0 0.0
2017-Aug-14 16:56N 37°09' E 025°14'0 0.0
2017-Aug-14 16:29N 37°09' E 025°14'0 0.0
2017-Aug-14 15:56N 37°09' E 025°14'0 0.0
2017-Aug-14 15:23N 37°09' E 025°14'0 0.0
2017-Aug-14 14:50N 37°09' E 025°14'0 0.0
2017-Aug-14 14:29N 37°09' E 025°14'0 0.0
2017-Aug-14 13:59N 37°09' E 025°14'0 0.0
2017-Aug-14 13:23N 37°09' E 025°14'0 0.0
2017-Aug-14 12:59N 37°09' E 025°14'0 0.0
2017-Aug-14 12:29N 37°09' E 025°14'0 0.0
2017-Aug-14 11:53N 37°09' E 025°14'0 0.0
2017-Aug-14 11:26N 37°09' E 025°14'1 1.2
2017-Aug-14 11:00N 37°09' E 025°14'4 7.1
2017-Aug-14 10:30N 37°12' E 025°15'4 7.9
2017-Aug-14 10:00N 37°16' E 025°15'4 8.6
2017-Aug-14 09:29N 37°20' E 025°16'4 8.1
2017-Aug-14 09:00N 37°24' E 025°17'4 7.5
2017-Aug-14 08:30N 37°28' E 025°19'0 0.3
2017-Aug-14 07:24N 37°28' E 025°20'0 0.0
2017-Aug-14 06:57N 37°28' E 025°20'0 0.0
2017-Aug-14 06:30N 37°28' E 025°20'0 0.0
2017-Aug-14 05:51N 37°28' E 025°20'0 0.0
2017-Aug-14 05:00N 37°28' E 025°20'0 0.0
2017-Aug-14 04:12N 37°28' E 025°20'0 0.0
2017-Aug-14 03:18N 37°28' E 025°20'0 0.0
2017-Aug-14 02:54N 37°28' E 025°20'0 0.0
2017-Aug-14 02:27N 37°28' E 025°20'0 0.0
2017-Aug-14 01:54N 37°28' E 025°20'0 0.0
2017-Aug-14 01:09N 37°28' E 025°20'0 0.0
2017-Aug-14 00:54N 37°28' E 025°20'0 0.0
2017-Aug-14 00:27N 37°28' E 025°20'0 0.0
2017-Aug-13 23:24N 37°28' E 025°20'0 0.0
2017-Aug-13 22:57N 37°28' E 025°20'0 0.0
2017-Aug-13 20:24N 37°28' E 025°20'0 0.0
2017-Aug-13 19:54N 37°28' E 025°20'0 0.0
2017-Aug-13 18:24N 37°28' E 025°20'0 0.0
2017-Aug-13 17:39N 37°28' E 025°20'0 0.0
2017-Aug-13 17:27N 37°28' E 025°20'0 0.0
2017-Aug-13 17:00N 37°28' E 025°20'0 0.0
2017-Aug-13 16:27N 37°28' E 025°20'0 0.0
2017-Aug-13 15:51N 37°28' E 025°20'0 0.0
2017-Aug-13 15:27N 37°28' E 025°20'0 0.0
2017-Aug-13 14:27N 37°28' E 025°20'0 0.0
2017-Aug-13 13:57N 37°28' E 025°20'0 0.0
2017-Aug-13 13:12N 37°28' E 025°20'0 0.0
2017-Aug-13 13:00N 37°28' E 025°20'0 0.0
2017-Aug-13 12:30N 37°28' E 025°20'0 0.0
2017-Aug-13 12:00N 37°28' E 025°20'0 0.0
2017-Aug-13 11:27N 37°28' E 025°20'0 0.0
2017-Aug-13 11:00N 37°28' E 025°20'0 0.0
2017-Aug-13 10:21N 37°28' E 025°20'0 0.0
2017-Aug-13 09:57N 37°28' E 025°20'1 1.3
2017-Aug-13 09:30N 37°28' E 025°19'4 7.7
2017-Aug-13 08:58N 37°27' E 025°14'4 7.8
2017-Aug-13 08:30N 37°26' E 025°09'4 7.4
2017-Aug-13 07:57N 37°24' E 025°05'4 7.6
2017-Aug-13 07:29N 37°23' E 025°00'4 7.7
2017-Aug-13 07:00N 37°22' E 024°56'3 6.3
2017-Aug-13 06:30N 37°23' E 024°52'1 0.0
2017-Aug-12 15:56N 37°23' E 024°52'3 7.1
2017-Aug-12 15:30N 37°24' E 024°49'49 7.4
2017-Aug-12 08:55N 37°43' E 023°52'4 8.0
2017-Aug-12 08:26N 37°46' E 023°48'4 7.8
2017-Aug-12 07:59N 37°49' E 023°45'4 7.8
2017-Aug-12 07:30N 37°52' E 023°43'  
Track history (hours):
 
Tides and Currents Weather Stations Pressure Air Temp Water Temp Dewpoint Dewpoint Depression Visibility Wind Speed Wind Dir Waves Ship Positions

Callsign SW8391 (name unknown)

Last reported at 2017-Aug-20 08:18 UTC. Time now 2017-Sep-22 22:28 UTC.
Position N 37°55' E 023°42'.
Warning: this ship's position is 33 days out of date.

AWS

Date/timePositionNaut miles runAvg speedWind from/ knotsBaromVisibWave heightAir tempDewpointWater temp
2017-Aug-20 08:18N 37°55' E 023°42'0 0.0
2017-Aug-20 08:00N 37°55' E 023°42'0 0.0
2017-Aug-20 07:30N 37°55' E 023°42'0 0.0
2017-Aug-20 06:57N 37°55' E 023°42'0 0.0
2017-Aug-20 06:30N 37°55' E 023°42'0 0.0
2017-Aug-20 06:00N 37°55' E 023°42'0 0.0
2017-Aug-20 05:30N 37°55' E 023°42'0 0.0
2017-Aug-20 05:00N 37°55' E 023°42'0 0.0
2017-Aug-20 04:30N 37°55' E 023°42'0 0.0
2017-Aug-20 04:00N 37°55' E 023°42'0 0.0
2017-Aug-20 03:30N 37°55' E 023°42'0 0.0
2017-Aug-20 03:00N 37°55' E 023°42'0 0.0
2017-Aug-20 02:27N 37°55' E 023°42'0 0.0
2017-Aug-20 01:57N 37°55' E 023°42'0 0.0
2017-Aug-20 01:30N 37°55' E 023°42'0 0.0
2017-Aug-20 01:00N 37°55' E 023°42'0 0.0
2017-Aug-20 00:30N 37°55' E 023°42'0 0.0
2017-Aug-20 00:00N 37°55' E 023°42'0 0.0
2017-Aug-19 23:30N 37°55' E 023°42'0 0.0
2017-Aug-19 23:00N 37°55' E 023°42'0 0.0
2017-Aug-19 22:27N 37°55' E 023°42'0 0.0
2017-Aug-19 22:00N 37°55' E 023°42'0 0.0
2017-Aug-19 21:30N 37°55' E 023°42'0 0.0
2017-Aug-19 21:00N 37°55' E 023°42'0 0.0
2017-Aug-19 20:30N 37°55' E 023°42'0 0.0
2017-Aug-19 20:00N 37°55' E 023°42'0 0.0
2017-Aug-19 19:30N 37°55' E 023°42'0 0.0
2017-Aug-19 19:00N 37°55' E 023°42'0 0.0
2017-Aug-19 18:30N 37°55' E 023°42'0 0.0
2017-Aug-19 18:00N 37°55' E 023°42'0 0.0
2017-Aug-19 17:30N 37°55' E 023°42'0 0.0
2017-Aug-19 17:00N 37°55' E 023°42'1 1.3
2017-Aug-19 16:30N 37°54' E 023°42'4 7.3
2017-Aug-19 16:00N 37°51' E 023°43'4 7.4
2017-Aug-19 15:30N 37°48' E 023°46'53 5.2
2017-Aug-19 05:16N 37°22' E 024°44'2 7.6
2017-Aug-19 05:00N 37°22' E 024°47'4 7.9
2017-Aug-19 04:30N 37°23' E 024°52'  
2017-Aug-16 07:17N 37°24' E 024°53'2 6.4
2017-Aug-16 07:00N 37°22' E 024°52'3 6.0
2017-Aug-16 06:30N 37°19' E 024°55'4 7.4
2017-Aug-16 06:00N 37°17' E 024°59'4 7.3
2017-Aug-16 05:30N 37°15' E 025°02'10 6.9
2017-Aug-16 04:04N 37°10' E 025°13'1 7.6
2017-Aug-16 03:58N 37°10' E 025°14'1 1.6
2017-Aug-16 03:20N 37°09' E 025°14'0 0.0
2017-Aug-16 02:59N 37°09' E 025°14'0 0.0
2017-Aug-16 02:29N 37°09' E 025°14'0 0.0
2017-Aug-16 01:56N 37°09' E 025°14'0 0.0
2017-Aug-16 01:29N 37°09' E 025°14'0 0.0
2017-Aug-16 00:59N 37°09' E 025°14'0 0.0
2017-Aug-16 00:29N 37°09' E 025°14'0 0.0
2017-Aug-15 23:59N 37°09' E 025°14'0 0.0
2017-Aug-15 23:29N 37°09' E 025°14'0 0.0
2017-Aug-15 22:59N 37°09' E 025°14'0 0.0
2017-Aug-15 22:26N 37°09' E 025°14'0 0.0
2017-Aug-15 21:56N 37°09' E 025°14'0 0.0
2017-Aug-15 21:29N 37°09' E 025°14'0 0.0
2017-Aug-15 20:56N 37°09' E 025°14'0 0.0
2017-Aug-15 20:29N 37°09' E 025°14'0 0.0
2017-Aug-15 19:59N 37°09' E 025°14'0 0.0
2017-Aug-15 19:26N 37°09' E 025°14'0 0.0
2017-Aug-15 18:56N 37°09' E 025°14'0 0.0
2017-Aug-15 18:26N 37°09' E 025°14'0 0.0
2017-Aug-15 17:59N 37°09' E 025°14'0 0.0
2017-Aug-15 17:26N 37°09' E 025°14'0 0.0
2017-Aug-15 16:59N 37°09' E 025°14'0 0.0
2017-Aug-15 16:26N 37°09' E 025°14'0 0.0
2017-Aug-15 15:50N 37°09' E 025°14'0 0.0
2017-Aug-15 15:29N 37°09' E 025°14'0 0.0
2017-Aug-15 14:56N 37°09' E 025°14'0 0.0
2017-Aug-15 14:23N 37°09' E 025°14'0 0.0
2017-Aug-15 13:59N 37°09' E 025°14'0 0.0
2017-Aug-15 13:29N 37°09' E 025°14'0 0.0
2017-Aug-15 12:59N 37°09' E 025°14'0 0.0
2017-Aug-15 12:29N 37°09' E 025°14'0 0.0
2017-Aug-15 11:59N 37°09' E 025°14'0 0.0
2017-Aug-15 11:29N 37°09' E 025°14'0 0.0
2017-Aug-15 10:59N 37°09' E 025°14'0 0.0
2017-Aug-15 10:23N 37°09' E 025°14'0 0.0
2017-Aug-15 09:59N 37°09' E 025°14'0 0.0
2017-Aug-15 09:29N 37°09' E 025°14'0 0.0
2017-Aug-15 08:56N 37°09' E 025°14'0 0.0
2017-Aug-15 08:29N 37°09' E 025°14'0 0.0
2017-Aug-15 07:56N 37°09' E 025°14'0 0.0
2017-Aug-15 07:23N 37°09' E 025°14'0 0.0
2017-Aug-15 06:59N 37°09' E 025°14'0 0.0
2017-Aug-15 06:26N 37°09' E 025°14'0 0.0
2017-Aug-15 05:59N 37°09' E 025°14'0 0.0
2017-Aug-15 05:29N 37°09' E 025°14'0 0.0
2017-Aug-15 04:59N 37°09' E 025°14'0 0.0
2017-Aug-15 04:29N 37°09' E 025°14'0 0.0
2017-Aug-15 03:59N 37°09' E 025°14'0 0.0
2017-Aug-15 03:29N 37°09' E 025°14'0 0.0
2017-Aug-15 02:59N 37°09' E 025°14'0 0.0
2017-Aug-15 02:29N 37°09' E 025°14'0 0.0
2017-Aug-15 01:53N 37°09' E 025°14'0 0.0
2017-Aug-15 01:29N 37°09' E 025°14'0 0.0
2017-Aug-15 00:59N 37°09' E 025°14'0 0.0
2017-Aug-15 00:29N 37°09' E 025°14'0 0.0
2017-Aug-14 23:56N 37°09' E 025°14'0 0.0
2017-Aug-14 23:26N 37°09' E 025°14'0 0.0
2017-Aug-14 22:53N 37°09' E 025°14'0 0.0
2017-Aug-14 22:23N 37°09' E 025°14'0 0.0
2017-Aug-14 21:53N 37°09' E 025°14'0 0.0
2017-Aug-14 21:26N 37°09' E 025°14'0 0.0
2017-Aug-14 20:56N 37°09' E 025°14'0 0.0
2017-Aug-14 20:29N 37°09' E 025°14'0 0.0
2017-Aug-14 19:59N 37°09' E 025°14'0 0.0
2017-Aug-14 19:29N 37°09' E 025°14'0 0.0
2017-Aug-14 18:59N 37°09' E 025°14'0 0.0
2017-Aug-14 18:29N 37°09' E 025°14'0 0.0
2017-Aug-14 17:53N 37°09' E 025°14'0 0.0
2017-Aug-14 17:29N 37°09' E 025°14'0 0.0
2017-Aug-14 16:56N 37°09' E 025°14'0 0.0
2017-Aug-14 16:29N 37°09' E 025°14'0 0.0
2017-Aug-14 15:56N 37°09' E 025°14'0 0.0
2017-Aug-14 15:23N 37°09' E 025°14'0 0.0
2017-Aug-14 14:50N 37°09' E 025°14'0 0.0
2017-Aug-14 14:29N 37°09' E 025°14'0 0.0
2017-Aug-14 13:59N 37°09' E 025°14'0 0.0
2017-Aug-14 13:23N 37°09' E 025°14'0 0.0
2017-Aug-14 12:59N 37°09' E 025°14'0 0.0
2017-Aug-14 12:29N 37°09' E 025°14'0 0.0
2017-Aug-14 11:53N 37°09' E 025°14'0 0.0
2017-Aug-14 11:26N 37°09' E 025°14'1 1.2
2017-Aug-14 11:00N 37°09' E 025°14'4 7.1
2017-Aug-14 10:30N 37°12' E 025°15'4 7.9
2017-Aug-14 10:00N 37°16' E 025°15'4 8.6
2017-Aug-14 09:29N 37°20' E 025°16'4 8.1
2017-Aug-14 09:00N 37°24' E 025°17'4 7.5
2017-Aug-14 08:30N 37°28' E 025°19'0 0.3
2017-Aug-14 07:24N 37°28' E 025°20'0 0.0
2017-Aug-14 06:57N 37°28' E 025°20'0 0.0
2017-Aug-14 06:30N 37°28' E 025°20'0 0.0
2017-Aug-14 05:51N 37°28' E 025°20'0 0.0
2017-Aug-14 05:00N 37°28' E 025°20'0 0.0
2017-Aug-14 04:12N 37°28' E 025°20'0 0.0
2017-Aug-14 03:18N 37°28' E 025°20'0 0.0
2017-Aug-14 02:54N 37°28' E 025°20'0 0.0
2017-Aug-14 02:27N 37°28' E 025°20'0 0.0
2017-Aug-14 01:54N 37°28' E 025°20'0 0.0
2017-Aug-14 01:09N 37°28' E 025°20'0 0.0
2017-Aug-14 00:54N 37°28' E 025°20'0 0.0
2017-Aug-14 00:27N 37°28' E 025°20'0 0.0
2017-Aug-13 23:24N 37°28' E 025°20'0 0.0
2017-Aug-13 22:57N 37°28' E 025°20'0 0.0
2017-Aug-13 20:24N 37°28' E 025°20'0 0.0
2017-Aug-13 19:54N 37°28' E 025°20'0 0.0
2017-Aug-13 18:24N 37°28' E 025°20'0 0.0
2017-Aug-13 17:39N 37°28' E 025°20'0 0.0
2017-Aug-13 17:27N 37°28' E 025°20'0 0.0
2017-Aug-13 17:00N 37°28' E 025°20'0 0.0
2017-Aug-13 16:27N 37°28' E 025°20'0 0.0
2017-Aug-13 15:51N 37°28' E 025°20'0 0.0
2017-Aug-13 15:27N 37°28' E 025°20'0 0.0
2017-Aug-13 14:27N 37°28' E 025°20'0 0.0
2017-Aug-13 13:57N 37°28' E 025°20'0 0.0
2017-Aug-13 13:12N 37°28' E 025°20'0 0.0
2017-Aug-13 13:00N 37°28' E 025°20'0 0.0
2017-Aug-13 12:30N 37°28' E 025°20'0 0.0
2017-Aug-13 12:00N 37°28' E 025°20'0 0.0
2017-Aug-13 11:27N 37°28' E 025°20'0 0.0
2017-Aug-13 11:00N 37°28' E 025°20'0 0.0
2017-Aug-13 10:21N 37°28' E 025°20'0 0.0
2017-Aug-13 09:57N 37°28' E 025°20'1 1.3
2017-Aug-13 09:30N 37°28' E 025°19'4 7.7
2017-Aug-13 08:58N 37°27' E 025°14'4 7.8
2017-Aug-13 08:30N 37°26' E 025°09'4 7.4
2017-Aug-13 07:57N 37°24' E 025°05'4 7.6
2017-Aug-13 07:29N 37°23' E 025°00'4 7.7
2017-Aug-13 07:00N 37°22' E 024°56'3 6.3
2017-Aug-13 06:30N 37°23' E 024°52'1 0.0
2017-Aug-12 15:56N 37°23' E 024°52'3 7.1
2017-Aug-12 15:30N 37°24' E 024°49'49 7.4
2017-Aug-12 08:55N 37°43' E 023°52'4 8.0
2017-Aug-12 08:26N 37°46' E 023°48'4 7.8
2017-Aug-12 07:59N 37°49' E 023°45'4 7.8
2017-Aug-12 07:30N 37°52' E 023°43'  

Dump ship's entire track history